sensor_id;sensor_type;location;lat;lon;timestamp;P1;durP1;ratioP1;P2;durP2;ratioP2
3547;SDS011;1788;49.400;11.092;2022-08-03T00:00:27;5.50;;;4.70;;
3547;SDS011;1788;49.400;11.092;2022-08-03T00:02:53;6.57;;;4.33;;
3547;SDS011;1788;49.400;11.092;2022-08-03T00:05:20;4.37;;;4.07;;
3547;SDS011;1788;49.400;11.092;2022-08-03T00:07:47;7.00;;;4.90;;
3547;SDS011;1788;49.400;11.092;2022-08-03T00:10:14;4.80;;;4.37;;
3547;SDS011;1788;49.400;11.092;2022-08-03T00:12:41;5.17;;;4.60;;
3547;SDS011;1788;49.400;11.092;2022-08-03T00:15:08;5.33;;;4.70;;
3547;SDS011;1788;49.400;11.092;2022-08-03T00:17:35;4.87;;;4.50;;
3547;SDS011;1788;49.400;11.092;2022-08-03T00:20:02;5.20;;;4.67;;
3547;SDS011;1788;49.400;11.092;2022-08-03T00:22:29;5.00;;;4.43;;
3547;SDS011;1788;49.400;11.092;2022-08-03T00:24:55;4.90;;;4.60;;
3547;SDS011;1788;49.400;11.092;2022-08-03T00:27:22;5.47;;;5.17;;
3547;SDS011;1788;49.400;11.092;2022-08-03T00:29:48;4.90;;;4.60;;
3547;SDS011;1788;49.400;11.092;2022-08-03T00:32:15;4.67;;;4.33;;
3547;SDS011;1788;49.400;11.092;2022-08-03T00:34:42;5.73;;;4.63;;
3547;SDS011;1788;49.400;11.092;2022-08-03T00:37:08;5.00;;;4.70;;
3547;SDS011;1788;49.400;11.092;2022-08-03T00:39:35;5.83;;;4.87;;
3547;SDS011;1788;49.400;11.092;2022-08-03T00:42:02;5.60;;;5.33;;
3547;SDS011;1788;49.400;11.092;2022-08-03T00:44:28;4.90;;;4.60;;
3547;SDS011;1788;49.400;11.092;2022-08-03T00:46:55;5.40;;;4.67;;
3547;SDS011;1788;49.400;11.092;2022-08-03T00:49:21;6.10;;;4.93;;
3547;SDS011;1788;49.400;11.092;2022-08-03T00:51:49;5.03;;;4.80;;
3547;SDS011;1788;49.400;11.092;2022-08-03T00:54:15;6.93;;;4.97;;
3547;SDS011;1788;49.400;11.092;2022-08-03T00:56:42;7.40;;;5.10;;
3547;SDS011;1788;49.400;11.092;2022-08-03T00:59:09;5.80;;;5.27;;
3547;SDS011;1788;49.400;11.092;2022-08-03T01:01:35;6.37;;;5.40;;
3547;SDS011;1788;49.400;11.092;2022-08-03T01:04:03;6.67;;;4.87;;
3547;SDS011;1788;49.400;11.092;2022-08-03T01:06:33;5.60;;;5.30;;
3547;SDS011;1788;49.400;11.092;2022-08-03T01:13:52;6.03;;;5.73;;
3547;SDS011;1788;49.400;11.092;2022-08-03T01:21:12;7.10;;;5.47;;
3547;SDS011;1788;49.400;11.092;2022-08-03T01:26:12;8.23;;;5.33;;
3547;SDS011;1788;49.400;11.092;2022-08-03T01:28:35;5.10;;;4.83;;
3547;SDS011;1788;49.400;11.092;2022-08-03T01:30:57;7.20;;;5.03;;
3547;SDS011;1788;49.400;11.092;2022-08-03T01:33:23;6.30;;;5.53;;
3547;SDS011;1788;49.400;11.092;2022-08-03T01:35:51;6.47;;;5.73;;
3547;SDS011;1788;49.400;11.092;2022-08-03T01:40:43;5.77;;;5.47;;
3547;SDS011;1788;49.400;11.092;2022-08-03T01:43:13;6.93;;;5.67;;
3547;SDS011;1788;49.400;11.092;2022-08-03T01:45:36;6.13;;;5.80;;
3547;SDS011;1788;49.400;11.092;2022-08-03T01:48:04;5.80;;;5.50;;
3547;SDS011;1788;49.400;11.092;2022-08-03T01:50:30;6.03;;;5.47;;
3547;SDS011;1788;49.400;11.092;2022-08-03T01:52:57;6.13;;;5.10;;
3547;SDS011;1788;49.400;11.092;2022-08-03T01:55:24;6.10;;;5.80;;
3547;SDS011;1788;49.400;11.092;2022-08-03T01:57:51;5.43;;;4.80;;
3547;SDS011;1788;49.400;11.092;2022-08-03T02:00:18;6.63;;;5.53;;
3547;SDS011;1788;49.400;11.092;2022-08-03T02:02:45;8.10;;;5.73;;
3547;SDS011;1788;49.400;11.092;2022-08-03T02:05:11;5.90;;;5.30;;
3547;SDS011;1788;49.400;11.092;2022-08-03T02:07:38;5.77;;;5.50;;
3547;SDS011;1788;49.400;11.092;2022-08-03T02:10:04;6.33;;;5.97;;
3547;SDS011;1788;49.400;11.092;2022-08-03T02:12:31;7.03;;;5.83;;
3547;SDS011;1788;49.400;11.092;2022-08-03T02:14:58;7.53;;;6.07;;
3547;SDS011;1788;49.400;11.092;2022-08-03T02:17:24;7.13;;;5.90;;
3547;SDS011;1788;49.400;11.092;2022-08-03T02:19:52;5.63;;;5.33;;
3547;SDS011;1788;49.400;11.092;2022-08-03T02:22:19;6.37;;;5.33;;
3547;SDS011;1788;49.400;11.092;2022-08-03T02:24:46;6.13;;;5.83;;
3547;SDS011;1788;49.400;11.092;2022-08-03T02:27:16;7.47;;;6.00;;
3547;SDS011;1788;49.400;11.092;2022-08-03T02:29:39;7.67;;;5.87;;
3547;SDS011;1788;49.400;11.092;2022-08-03T02:32:08;6.10;;;5.80;;
3547;SDS011;1788;49.400;11.092;2022-08-03T02:34:32;6.37;;;5.30;;
3547;SDS011;1788;49.400;11.092;2022-08-03T02:37:00;6.00;;;5.10;;
3547;SDS011;1788;49.400;11.092;2022-08-03T02:39:27;7.40;;;5.93;;
3547;SDS011;1788;49.400;11.092;2022-08-03T02:41:53;5.77;;;5.30;;
3547;SDS011;1788;49.400;11.092;2022-08-03T02:44:22;7.73;;;5.53;;
3547;SDS011;1788;49.400;11.092;2022-08-03T02:46:46;6.80;;;5.70;;
3547;SDS011;1788;49.400;11.092;2022-08-03T02:49:13;9.07;;;5.97;;
3547;SDS011;1788;49.400;11.092;2022-08-03T02:51:39;6.80;;;5.67;;
3547;SDS011;1788;49.400;11.092;2022-08-03T02:54:06;6.30;;;5.53;;
3547;SDS011;1788;49.400;11.092;2022-08-03T02:56:33;6.93;;;5.63;;
3547;SDS011;1788;49.400;11.092;2022-08-03T02:59:00;5.37;;;5.07;;
3547;SDS011;1788;49.400;11.092;2022-08-03T03:01:27;6.13;;;5.63;;
3547;SDS011;1788;49.400;11.092;2022-08-03T03:03:55;8.20;;;6.77;;
3547;SDS011;1788;49.400;11.092;2022-08-03T03:06:21;7.23;;;5.97;;
3547;SDS011;1788;49.400;11.092;2022-08-03T03:08:48;7.40;;;5.97;;
3547;SDS011;1788;49.400;11.092;2022-08-03T03:11:17;7.37;;;5.87;;
3547;SDS011;1788;49.400;11.092;2022-08-03T03:13:42;6.97;;;5.57;;
3547;SDS011;1788;49.400;11.092;2022-08-03T03:16:08;6.60;;;6.23;;
3547;SDS011;1788;49.400;11.092;2022-08-03T03:18:34;6.07;;;5.77;;
3547;SDS011;1788;49.400;11.092;2022-08-03T03:21:02;6.40;;;5.90;;
3547;SDS011;1788;49.400;11.092;2022-08-03T03:23:29;7.07;;;5.33;;
3547;SDS011;1788;49.400;11.092;2022-08-03T03:25:56;7.00;;;6.00;;
3547;SDS011;1788;49.400;11.092;2022-08-03T03:28:23;9.67;;;6.30;;
3547;SDS011;1788;49.400;11.092;2022-08-03T03:30:49;7.27;;;6.07;;
3547;SDS011;1788;49.400;11.092;2022-08-03T03:33:16;9.70;;;7.07;;
3547;SDS011;1788;49.400;11.092;2022-08-03T03:35:43;7.63;;;6.77;;
3547;SDS011;1788;49.400;11.092;2022-08-03T03:38:10;8.10;;;6.67;;
3547;SDS011;1788;49.400;11.092;2022-08-03T03:40:37;6.43;;;6.03;;
3547;SDS011;1788;49.400;11.092;2022-08-03T03:45:32;7.13;;;6.07;;
3547;SDS011;1788;49.400;11.092;2022-08-03T03:47:58;8.30;;;6.57;;
3547;SDS011;1788;49.400;11.092;2022-08-03T03:50:24;7.20;;;6.37;;
3547;SDS011;1788;49.400;11.092;2022-08-03T03:52:51;6.50;;;5.93;;
3547;SDS011;1788;49.400;11.092;2022-08-03T03:55:18;7.37;;;6.37;;
3547;SDS011;1788;49.400;11.092;2022-08-03T03:57:45;6.30;;;5.87;;
3547;SDS011;1788;49.400;11.092;2022-08-03T04:00:12;6.73;;;5.97;;
3547;SDS011;1788;49.400;11.092;2022-08-03T04:02:38;9.00;;;6.93;;
3547;SDS011;1788;49.400;11.092;2022-08-03T04:05:05;8.87;;;6.97;;
3547;SDS011;1788;49.400;11.092;2022-08-03T04:07:32;7.80;;;6.80;;
3547;SDS011;1788;49.400;11.092;2022-08-03T04:09:58;7.87;;;6.20;;
3547;SDS011;1788;49.400;11.092;2022-08-03T04:12:25;7.10;;;6.17;;
3547;SDS011;1788;49.400;11.092;2022-08-03T04:14:52;8.80;;;6.50;;
3547;SDS011;1788;49.400;11.092;2022-08-03T04:17:18;7.03;;;6.63;;
3547;SDS011;1788;49.400;11.092;2022-08-03T04:19:46;6.87;;;6.33;;
3547;SDS011;1788;49.400;11.092;2022-08-03T04:22:13;9.47;;;6.83;;
3547;SDS011;1788;49.400;11.092;2022-08-03T04:24:40;9.83;;;6.27;;
3547;SDS011;1788;49.400;11.092;2022-08-03T04:27:06;7.97;;;6.67;;
3547;SDS011;1788;49.400;11.092;2022-08-03T04:29:32;8.60;;;7.03;;
3547;SDS011;1788;49.400;11.092;2022-08-03T04:31:59;7.47;;;6.73;;
3547;SDS011;1788;49.400;11.092;2022-08-03T04:34:26;8.13;;;6.13;;
3547;SDS011;1788;49.400;11.092;2022-08-03T04:36:55;8.60;;;7.03;;
3547;SDS011;1788;49.400;11.092;2022-08-03T04:39:22;10.13;;;7.03;;
3547;SDS011;1788;49.400;11.092;2022-08-03T04:41:45;10.63;;;7.00;;
3547;SDS011;1788;49.400;11.092;2022-08-03T04:44:13;8.07;;;6.80;;
3547;SDS011;1788;49.400;11.092;2022-08-03T04:46:39;7.10;;;6.70;;
3547;SDS011;1788;49.400;11.092;2022-08-03T04:49:07;8.37;;;6.47;;
3547;SDS011;1788;49.400;11.092;2022-08-03T04:51:33;7.03;;;6.67;;
3547;SDS011;1788;49.400;11.092;2022-08-03T04:54:01;11.10;;;7.10;;
3547;SDS011;1788;49.400;11.092;2022-08-03T04:56:27;8.37;;;6.80;;
3547;SDS011;1788;49.400;11.092;2022-08-03T04:58:54;7.80;;;6.53;;
3547;SDS011;1788;49.400;11.092;2022-08-03T05:01:20;8.10;;;6.70;;
3547;SDS011;1788;49.400;11.092;2022-08-03T05:03:47;7.97;;;6.90;;
3547;SDS011;1788;49.400;11.092;2022-08-03T05:06:15;8.97;;;6.73;;
3547;SDS011;1788;49.400;11.092;2022-08-03T05:08:42;8.00;;;6.70;;
3547;SDS011;1788;49.400;11.092;2022-08-03T05:11:09;7.73;;;7.10;;
3547;SDS011;1788;49.400;11.092;2022-08-03T05:13:36;9.03;;;6.57;;
3547;SDS011;1788;49.400;11.092;2022-08-03T05:16:04;6.87;;;6.33;;
3547;SDS011;1788;49.400;11.092;2022-08-03T05:18:31;8.40;;;6.73;;
3547;SDS011;1788;49.400;11.092;2022-08-03T05:20:58;6.77;;;6.00;;
3547;SDS011;1788;49.400;11.092;2022-08-03T05:23:25;7.27;;;6.63;;
3547;SDS011;1788;49.400;11.092;2022-08-03T05:25:51;9.40;;;6.70;;
3547;SDS011;1788;49.400;11.092;2022-08-03T05:28:18;8.60;;;7.07;;
3547;SDS011;1788;49.400;11.092;2022-08-03T05:30:44;12.33;;;8.03;;
3547;SDS011;1788;49.400;11.092;2022-08-03T05:33:11;10.27;;;7.70;;
3547;SDS011;1788;49.400;11.092;2022-08-03T05:35:38;10.07;;;7.63;;
3547;SDS011;1788;49.400;11.092;2022-08-03T05:38:05;10.83;;;7.50;;
3547;SDS011;1788;49.400;11.092;2022-08-03T05:40:32;7.90;;;6.97;;
3547;SDS011;1788;49.400;11.092;2022-08-03T05:42:58;10.17;;;7.70;;
3547;SDS011;1788;49.400;11.092;2022-08-03T05:45:25;7.53;;;6.77;;
3547;SDS011;1788;49.400;11.092;2022-08-03T05:47:52;9.30;;;7.20;;
3547;SDS011;1788;49.400;11.092;2022-08-03T05:50:19;8.27;;;7.27;;
3547;SDS011;1788;49.400;11.092;2022-08-03T05:52:46;12.13;;;7.13;;
3547;SDS011;1788;49.400;11.092;2022-08-03T05:55:14;7.30;;;6.43;;
3547;SDS011;1788;49.400;11.092;2022-08-03T05:57:40;9.07;;;6.77;;
3547;SDS011;1788;49.400;11.092;2022-08-03T06:00:07;8.00;;;6.73;;
3547;SDS011;1788;49.400;11.092;2022-08-03T06:02:33;6.90;;;6.50;;
3547;SDS011;1788;49.400;11.092;2022-08-03T06:05:00;6.90;;;6.47;;
3547;SDS011;1788;49.400;11.092;2022-08-03T06:07:28;6.97;;;6.57;;
3547;SDS011;1788;49.400;11.092;2022-08-03T06:09:54;7.90;;;7.07;;
3547;SDS011;1788;49.400;11.092;2022-08-03T06:12:21;6.97;;;6.57;;
3547;SDS011;1788;49.400;11.092;2022-08-03T06:14:47;7.00;;;6.60;;
3547;SDS011;1788;49.400;11.092;2022-08-03T06:17:14;6.77;;;6.37;;
3547;SDS011;1788;49.400;11.092;2022-08-03T06:19:41;6.77;;;6.40;;
3547;SDS011;1788;49.400;11.092;2022-08-03T06:22:07;7.83;;;6.30;;
3547;SDS011;1788;49.400;11.092;2022-08-03T06:24:34;7.33;;;6.30;;
3547;SDS011;1788;49.400;11.092;2022-08-03T06:27:00;6.10;;;5.80;;
3547;SDS011;1788;49.400;11.092;2022-08-03T06:29:27;8.23;;;6.77;;
3547;SDS011;1788;49.400;11.092;2022-08-03T06:31:54;7.37;;;6.97;;
3547;SDS011;1788;49.400;11.092;2022-08-03T06:34:20;7.20;;;6.00;;
3547;SDS011;1788;49.400;11.092;2022-08-03T06:36:47;6.40;;;5.37;;
3547;SDS011;1788;49.400;11.092;2022-08-03T06:39:14;7.00;;;4.57;;
3547;SDS011;1788;49.400;11.092;2022-08-03T06:41:40;6.97;;;5.07;;
3547;SDS011;1788;49.400;11.092;2022-08-03T06:44:07;4.83;;;4.57;;
3547;SDS011;1788;49.400;11.092;2022-08-03T06:46:33;4.30;;;4.00;;
3547;SDS011;1788;49.400;11.092;2022-08-03T06:49:00;5.40;;;4.83;;
3547;SDS011;1788;49.400;11.092;2022-08-03T06:51:27;6.53;;;4.57;;
3547;SDS011;1788;49.400;11.092;2022-08-03T06:53:54;4.60;;;4.30;;
3547;SDS011;1788;49.400;11.092;2022-08-03T06:56:21;5.07;;;4.50;;
3547;SDS011;1788;49.400;11.092;2022-08-03T06:58:47;5.30;;;4.87;;
3547;SDS011;1788;49.400;11.092;2022-08-03T07:01:14;5.13;;;4.50;;
3547;SDS011;1788;49.400;11.092;2022-08-03T07:03:40;6.13;;;4.83;;
3547;SDS011;1788;49.400;11.092;2022-08-03T07:06:07;4.63;;;4.43;;
3547;SDS011;1788;49.400;11.092;2022-08-03T07:08:34;4.67;;;4.37;;
3547;SDS011;1788;49.400;11.092;2022-08-03T07:11:00;6.73;;;4.60;;
3547;SDS011;1788;49.400;11.092;2022-08-03T07:13:27;5.43;;;5.13;;
3547;SDS011;1788;49.400;11.092;2022-08-03T07:15:53;6.23;;;4.90;;
3547;SDS011;1788;49.400;11.092;2022-08-03T07:18:20;6.87;;;4.50;;
3547;SDS011;1788;49.400;11.092;2022-08-03T07:20:47;5.03;;;4.73;;
3547;SDS011;1788;49.400;11.092;2022-08-03T07:23:14;5.07;;;4.77;;
3547;SDS011;1788;49.400;11.092;2022-08-03T07:25:41;4.80;;;4.50;;
3547;SDS011;1788;49.400;11.092;2022-08-03T07:28:08;5.80;;;4.90;;
3547;SDS011;1788;49.400;11.092;2022-08-03T07:30:35;4.10;;;3.90;;
3547;SDS011;1788;49.400;11.092;2022-08-03T07:33:01;4.10;;;3.90;;
3547;SDS011;1788;49.400;11.092;2022-08-03T07:35:28;4.87;;;4.50;;
3547;SDS011;1788;49.400;11.092;2022-08-03T07:37:54;4.90;;;4.60;;
3547;SDS011;1788;49.400;11.092;2022-08-03T07:40:21;4.23;;;4.03;;
3547;SDS011;1788;49.400;11.092;2022-08-03T07:42:48;5.70;;;4.10;;
3547;SDS011;1788;49.400;11.092;2022-08-03T07:45:14;3.83;;;3.63;;
3547;SDS011;1788;49.400;11.092;2022-08-03T07:47:41;5.47;;;4.73;;
3547;SDS011;1788;49.400;11.092;2022-08-03T07:50:08;4.50;;;4.23;;
3547;SDS011;1788;49.400;11.092;2022-08-03T07:52:35;6.70;;;4.20;;
3547;SDS011;1788;49.400;11.092;2022-08-03T07:55:03;3.73;;;3.53;;
3547;SDS011;1788;49.400;11.092;2022-08-03T07:57:29;4.93;;;4.67;;
3547;SDS011;1788;49.400;11.092;2022-08-03T07:59:56;4.03;;;3.83;;
3547;SDS011;1788;49.400;11.092;2022-08-03T08:02:22;7.00;;;4.13;;
3547;SDS011;1788;49.400;11.092;2022-08-03T08:04:49;4.10;;;3.90;;
3547;SDS011;1788;49.400;11.092;2022-08-03T08:07:15;5.77;;;4.47;;
3547;SDS011;1788;49.400;11.092;2022-08-03T08:09:42;5.10;;;4.00;;
3547;SDS011;1788;49.400;11.092;2022-08-03T08:12:09;5.27;;;4.27;;
3547;SDS011;1788;49.400;11.092;2022-08-03T08:14:35;4.33;;;3.80;;
3547;SDS011;1788;49.400;11.092;2022-08-03T08:17:03;4.83;;;3.73;;
3547;SDS011;1788;49.400;11.092;2022-08-03T08:19:29;3.83;;;3.63;;
3547;SDS011;1788;49.400;11.092;2022-08-03T08:21:57;4.10;;;3.87;;
3547;SDS011;1788;49.400;11.092;2022-08-03T08:24:24;5.10;;;3.53;;
3547;SDS011;1788;49.400;11.092;2022-08-03T08:26:51;4.13;;;3.87;;
3547;SDS011;1788;49.400;11.092;2022-08-03T08:29:17;4.50;;;3.40;;
3547;SDS011;1788;49.400;11.092;2022-08-03T08:31:44;4.43;;;4.13;;
3547;SDS011;1788;49.400;11.092;2022-08-03T08:34:11;4.30;;;4.00;;
3547;SDS011;1788;49.400;11.092;2022-08-03T08:36:38;4.93;;;4.40;;
3547;SDS011;1788;49.400;11.092;2022-08-03T08:39:05;3.30;;;3.10;;
3547;SDS011;1788;49.400;11.092;2022-08-03T08:41:32;3.63;;;3.43;;
3547;SDS011;1788;49.400;11.092;2022-08-03T08:44:00;4.30;;;3.63;;
3547;SDS011;1788;49.400;11.092;2022-08-03T08:46:26;4.10;;;3.87;;
3547;SDS011;1788;49.400;11.092;2022-08-03T08:48:53;5.67;;;3.60;;
3547;SDS011;1788;49.400;11.092;2022-08-03T08:51:21;3.63;;;3.43;;
3547;SDS011;1788;49.400;11.092;2022-08-03T08:56:14;4.13;;;3.70;;
3547;SDS011;1788;49.400;11.092;2022-08-03T08:58:45;4.70;;;3.27;;
3547;SDS011;1788;49.400;11.092;2022-08-03T09:01:08;3.37;;;3.17;;
3547;SDS011;1788;49.400;11.092;2022-08-03T09:03:36;2.87;;;2.67;;
3547;SDS011;1788;49.400;11.092;2022-08-03T09:06:02;4.07;;;3.33;;
3547;SDS011;1788;49.400;11.092;2022-08-03T09:08:29;3.33;;;3.20;;
3547;SDS011;1788;49.400;11.092;2022-08-03T09:10:55;2.90;;;2.70;;
3547;SDS011;1788;49.400;11.092;2022-08-03T09:13:22;3.20;;;3.03;;
3547;SDS011;1788;49.400;11.092;2022-08-03T09:16:07;3.53;;;3.20;;
3547;SDS011;1788;49.400;11.092;2022-08-03T09:18:22;4.00;;;3.27;;
3547;SDS011;1788;49.400;11.092;2022-08-03T09:20:43;3.23;;;3.03;;
3547;SDS011;1788;49.400;11.092;2022-08-03T09:23:10;3.37;;;2.90;;
3547;SDS011;1788;49.400;11.092;2022-08-03T09:25:37;2.93;;;2.73;;
3547;SDS011;1788;49.400;11.092;2022-08-03T09:28:05;3.77;;;2.97;;
3547;SDS011;1788;49.400;11.092;2022-08-03T09:30:30;2.63;;;2.43;;
3547;SDS011;1788;49.400;11.092;2022-08-03T09:35:25;2.83;;;2.63;;
3547;SDS011;1788;49.400;11.092;2022-08-03T09:38:07;3.03;;;2.83;;
3547;SDS011;1788;49.400;11.092;2022-08-03T09:40:32;2.60;;;2.40;;
3547;SDS011;1788;49.400;11.092;2022-08-03T09:45:24;2.67;;;2.47;;
3547;SDS011;1788;49.400;11.092;2022-08-03T09:47:36;3.70;;;2.55;;
3547;SDS011;1788;49.400;11.092;2022-08-03T09:50:04;2.33;;;2.17;;
3547;SDS011;1788;49.400;11.092;2022-08-03T09:54:56;2.07;;;1.93;;
3547;SDS011;1788;49.400;11.092;2022-08-03T09:57:23;3.03;;;2.17;;
3547;SDS011;1788;49.400;11.092;2022-08-03T09:59:50;2.27;;;2.07;;
3547;SDS011;1788;49.400;11.092;2022-08-03T10:07:11;2.03;;;1.90;;
3547;SDS011;1788;49.400;11.092;2022-08-03T10:09:37;2.20;;;2.00;;
3547;SDS011;1788;49.400;11.092;2022-08-03T10:14:30;2.63;;;2.43;;
3547;SDS011;1788;49.400;11.092;2022-08-03T10:16:57;1.97;;;1.87;;
3547;SDS011;1788;49.400;11.092;2022-08-03T10:19:24;3.20;;;2.30;;
3547;SDS011;1788;49.400;11.092;2022-08-03T10:24:21;2.17;;;2.00;;
3547;SDS011;1788;49.400;11.092;2022-08-03T10:26:44;1.90;;;1.80;;
3547;SDS011;1788;49.400;11.092;2022-08-03T10:29:11;3.30;;;2.00;;
3547;SDS011;1788;49.400;11.092;2022-08-03T10:31:38;2.10;;;1.85;;
3547;SDS011;1788;49.400;11.092;2022-08-03T10:34:05;2.37;;;2.25;;
3547;SDS011;1788;49.400;11.092;2022-08-03T10:36:31;2.80;;;2.37;;
3547;SDS011;1788;49.400;11.092;2022-08-03T10:38:57;2.80;;;2.28;;
3547;SDS011;1788;49.400;11.092;2022-08-03T10:41:25;2.37;;;2.17;;
3547;SDS011;1788;49.400;11.092;2022-08-03T10:43:55;3.25;;;2.30;;
3547;SDS011;1788;49.400;11.092;2022-08-03T10:46:17;1.95;;;1.85;;
3547;SDS011;1788;49.400;11.092;2022-08-03T10:48:44;2.00;;;1.62;;
3547;SDS011;1788;49.400;11.092;2022-08-03T10:51:11;1.60;;;1.50;;
3547;SDS011;1788;49.400;11.092;2022-08-03T10:53:39;1.85;;;1.75;;
3547;SDS011;1788;49.400;11.092;2022-08-03T10:56:04;1.60;;;1.52;;
3547;SDS011;1788;49.400;11.092;2022-08-03T11:00:57;2.00;;;1.90;;
3547;SDS011;1788;49.400;11.092;2022-08-03T11:03:24;1.95;;;1.85;;
3547;SDS011;1788;49.400;11.092;2022-08-03T11:05:50;2.35;;;1.58;;
3547;SDS011;1788;49.400;11.092;2022-08-03T11:08:19;1.55;;;1.48;;
3547;SDS011;1788;49.400;11.092;2022-08-03T11:10:44;1.92;;;1.70;;
3547;SDS011;1788;49.400;11.092;2022-08-03T11:13:14;1.87;;;1.80;;
3547;SDS011;1788;49.400;11.092;2022-08-03T11:15:37;2.50;;;1.90;;
3547;SDS011;1788;49.400;11.092;2022-08-03T11:18:07;2.47;;;2.28;;
3547;SDS011;1788;49.400;11.092;2022-08-03T11:22:58;2.00;;;1.90;;
3547;SDS011;1788;49.400;11.092;2022-08-03T11:25:25;1.95;;;1.85;;
3547;SDS011;1788;49.400;11.092;2022-08-03T11:28:14;4.43;;;1.85;;
3547;SDS011;1788;49.400;11.092;2022-08-03T11:30:22;1.98;;;1.87;;
3547;SDS011;1788;49.400;11.092;2022-08-03T11:40:05;1.92;;;1.83;;
3547;SDS011;1788;49.400;11.092;2022-08-03T11:44:58;1.90;;;1.80;;
3547;SDS011;1788;49.400;11.092;2022-08-03T11:47:26;2.33;;;1.98;;
3547;SDS011;1788;49.400;11.092;2022-08-03T11:52:19;1.65;;;1.55;;
3547;SDS011;1788;49.400;11.092;2022-08-03T11:54:46;1.90;;;1.80;;
3547;SDS011;1788;49.400;11.092;2022-08-03T11:57:12;1.52;;;1.37;;
3547;SDS011;1788;49.400;11.092;2022-08-03T11:59:39;2.45;;;2.28;;
3547;SDS011;1788;49.400;11.092;2022-08-03T12:06:59;2.10;;;1.95;;
3547;SDS011;1788;49.400;11.092;2022-08-03T12:09:26;1.73;;;1.50;;
3547;SDS011;1788;49.400;11.092;2022-08-03T12:11:53;2.05;;;1.65;;
3547;SDS011;1788;49.400;11.092;2022-08-03T12:14:19;1.90;;;1.80;;
3547;SDS011;1788;49.400;11.092;2022-08-03T12:16:46;3.50;;;1.92;;
3547;SDS011;1788;49.400;11.092;2022-08-03T12:19:13;3.67;;;1.70;;
3547;SDS011;1788;49.400;11.092;2022-08-03T12:24:06;2.37;;;2.17;;
3547;SDS011;1788;49.400;11.092;2022-08-03T12:28:59;1.50;;;1.40;;
3547;SDS011;1788;49.400;11.092;2022-08-03T12:31:26;1.70;;;1.60;;
3547;SDS011;1788;49.400;11.092;2022-08-03T12:33:58;1.70;;;1.60;;
3547;SDS011;1788;49.400;11.092;2022-08-03T12:36:20;1.60;;;1.50;;
3547;SDS011;1788;49.400;11.092;2022-08-03T12:38:53;3.95;;;1.83;;
3547;SDS011;1788;49.400;11.092;2022-08-03T12:41:13;1.62;;;1.52;;
3547;SDS011;1788;49.400;11.092;2022-08-03T12:46:07;1.80;;;1.70;;
3547;SDS011;1788;49.400;11.092;2022-08-03T12:48:33;1.75;;;1.65;;
3547;SDS011;1788;49.400;11.092;2022-08-03T12:53:28;1.83;;;1.75;;
3547;SDS011;1788;49.400;11.092;2022-08-03T12:56:00;2.00;;;1.62;;
3547;SDS011;1788;49.400;11.092;2022-08-03T13:03:15;1.87;;;1.55;;
3547;SDS011;1788;49.400;11.092;2022-08-03T13:10:36;2.42;;;1.45;;
3547;SDS011;1788;49.400;11.092;2022-08-03T13:13:02;1.80;;;1.70;;
3547;SDS011;1788;49.400;11.092;2022-08-03T13:15:29;1.37;;;1.30;;
3547;SDS011;1788;49.400;11.092;2022-08-03T13:17:56;3.05;;;1.77;;
3547;SDS011;1788;49.400;11.092;2022-08-03T13:20:22;1.80;;;1.70;;
3547;SDS011;1788;49.400;11.092;2022-08-03T13:22:50;1.60;;;1.50;;
3547;SDS011;1788;49.400;11.092;2022-08-03T13:25:16;1.67;;;1.58;;
3547;SDS011;1788;49.400;11.092;2022-08-03T13:27:43;1.70;;;1.60;;
3547;SDS011;1788;49.400;11.092;2022-08-03T13:30:09;1.45;;;1.35;;
3547;SDS011;1788;49.400;11.092;2022-08-03T13:32:36;1.80;;;1.70;;
3547;SDS011;1788;49.400;11.092;2022-08-03T13:35:03;1.60;;;1.50;;
3547;SDS011;1788;49.400;11.092;2022-08-03T13:37:29;1.20;;;1.10;;
3547;SDS011;1788;49.400;11.092;2022-08-03T13:39:56;1.48;;;1.37;;
3547;SDS011;1788;49.400;11.092;2022-08-03T13:42:23;1.95;;;1.25;;
3547;SDS011;1788;49.400;11.092;2022-08-03T13:44:49;1.20;;;1.10;;
3547;SDS011;1788;49.400;11.092;2022-08-03T13:47:16;1.50;;;1.40;;
3547;SDS011;1788;49.400;11.092;2022-08-03T13:49:43;3.42;;;2.00;;
3547;SDS011;1788;49.400;11.092;2022-08-03T13:52:10;1.70;;;1.60;;
3547;SDS011;1788;49.400;11.092;2022-08-03T13:54:37;1.70;;;1.60;;
3547;SDS011;1788;49.400;11.092;2022-08-03T13:57:03;2.08;;;1.70;;
3547;SDS011;1788;49.400;11.092;2022-08-03T13:59:30;1.45;;;1.37;;
3547;SDS011;1788;49.400;11.092;2022-08-03T14:01:56;2.17;;;1.58;;
3547;SDS011;1788;49.400;11.092;2022-08-03T14:04:23;1.58;;;1.48;;
3547;SDS011;1788;49.400;11.092;2022-08-03T14:06:50;1.40;;;1.30;;
3547;SDS011;1788;49.400;11.092;2022-08-03T14:09:16;1.55;;;1.45;;
3547;SDS011;1788;49.400;11.092;2022-08-03T14:11:43;1.70;;;1.60;;
3547;SDS011;1788;49.400;11.092;2022-08-03T14:14:10;1.45;;;1.35;;
3547;SDS011;1788;49.400;11.092;2022-08-03T14:16:37;2.40;;;1.40;;
3547;SDS011;1788;49.400;11.092;2022-08-03T14:19:04;1.52;;;1.50;;
3547;SDS011;1788;49.400;11.092;2022-08-03T14:21:31;1.52;;;1.40;;
3547;SDS011;1788;49.400;11.092;2022-08-03T14:23:57;1.52;;;1.35;;
3547;SDS011;1788;49.400;11.092;2022-08-03T14:26:24;1.62;;;1.52;;
3547;SDS011;1788;49.400;11.092;2022-08-03T14:28:50;1.42;;;1.33;;
3547;SDS011;1788;49.400;11.092;2022-08-03T14:31:17;1.58;;;1.48;;
3547;SDS011;1788;49.400;11.092;2022-08-03T14:33:43;2.08;;;1.48;;
3547;SDS011;1788;49.400;11.092;2022-08-03T14:36:10;1.70;;;1.60;;
3547;SDS011;1788;49.400;11.092;2022-08-03T14:38:37;1.70;;;1.60;;
3547;SDS011;1788;49.400;11.092;2022-08-03T14:41:03;1.50;;;1.40;;
3547;SDS011;1788;49.400;11.092;2022-08-03T14:43:30;1.85;;;1.80;;
3547;SDS011;1788;49.400;11.092;2022-08-03T14:45:57;1.42;;;1.33;;
3547;SDS011;1788;49.400;11.092;2022-08-03T14:48:24;1.70;;;1.60;;
3547;SDS011;1788;49.400;11.092;2022-08-03T14:50:51;1.60;;;1.50;;
3547;SDS011;1788;49.400;11.092;2022-08-03T14:53:17;1.50;;;1.37;;
3547;SDS011;1788;49.400;11.092;2022-08-03T14:55:44;1.83;;;1.73;;
3547;SDS011;1788;49.400;11.092;2022-08-03T14:58:11;1.65;;;1.60;;
3547;SDS011;1788;49.400;11.092;2022-08-03T15:00:37;2.00;;;1.70;;
3547;SDS011;1788;49.400;11.092;2022-08-03T15:03:04;1.70;;;1.62;;
3547;SDS011;1788;49.400;11.092;2022-08-03T15:05:31;1.92;;;1.48;;
3547;SDS011;1788;49.400;11.092;2022-08-03T15:07:58;1.58;;;1.50;;
3547;SDS011;1788;49.400;11.092;2022-08-03T15:10:25;1.58;;;1.48;;
3547;SDS011;1788;49.400;11.092;2022-08-03T15:12:51;2.12;;;1.58;;
3547;SDS011;1788;49.400;11.092;2022-08-03T15:15:18;1.52;;;1.42;;
3547;SDS011;1788;49.400;11.092;2022-08-03T15:17:44;2.35;;;1.77;;
3547;SDS011;1788;49.400;11.092;2022-08-03T15:20:11;1.58;;;1.52;;
3547;SDS011;1788;49.400;11.092;2022-08-03T15:22:38;1.60;;;1.50;;
3547;SDS011;1788;49.400;11.092;2022-08-03T15:25:05;1.25;;;1.15;;
3547;SDS011;1788;49.400;11.092;2022-08-03T15:27:31;1.80;;;1.70;;
3547;SDS011;1788;49.400;11.092;2022-08-03T15:29:58;1.87;;;1.30;;
3547;SDS011;1788;49.400;11.092;2022-08-03T15:32:25;1.52;;;1.42;;
3547;SDS011;1788;49.400;11.092;2022-08-03T15:34:52;2.40;;;1.85;;
3547;SDS011;1788;49.400;11.092;2022-08-03T15:37:18;2.58;;;1.60;;
3547;SDS011;1788;49.400;11.092;2022-08-03T15:39:45;1.90;;;1.80;;
3547;SDS011;1788;49.400;11.092;2022-08-03T15:42:12;1.30;;;1.20;;
3547;SDS011;1788;49.400;11.092;2022-08-03T15:44:38;1.55;;;1.45;;
3547;SDS011;1788;49.400;11.092;2022-08-03T15:47:05;2.00;;;1.70;;
3547;SDS011;1788;49.400;11.092;2022-08-03T15:49:32;1.77;;;1.67;;
3547;SDS011;1788;49.400;11.092;2022-08-03T15:51:58;1.83;;;1.65;;
3547;SDS011;1788;49.400;11.092;2022-08-03T15:54:25;1.70;;;1.60;;
3547;SDS011;1788;49.400;11.092;2022-08-03T15:56:52;2.60;;;1.83;;
3547;SDS011;1788;49.400;11.092;2022-08-03T15:59:18;1.33;;;1.23;;
3547;SDS011;1788;49.400;11.092;2022-08-03T16:01:45;1.60;;;1.50;;
3547;SDS011;1788;49.400;11.092;2022-08-03T16:04:11;1.70;;;1.60;;
3547;SDS011;1788;49.400;11.092;2022-08-03T16:06:38;2.70;;;1.90;;
3547;SDS011;1788;49.400;11.092;2022-08-03T16:09:05;1.60;;;1.50;;
3547;SDS011;1788;49.400;11.092;2022-08-03T16:11:32;3.10;;;1.48;;
3547;SDS011;1788;49.400;11.092;2022-08-03T16:13:58;2.00;;;1.75;;